Time;durP1;ratioP1;P1;durP2;ratioP2;P2;SDS_P1;SDS_P2;PMS_P1;PMS_P2;Temp;Humidity;BMP_temperature;BMP_pressure;BME280_temperature;BME280_humidity;BME280_pressure;Samples;Min_cycle;Max_cycle;Signal;HPM_P1;HPM_P2
2021/11/30 00:02:44;;;;;;;17.93;9.20;;;;;;;1.74;100.00;99345.39;3433302;83;99051;-81
2021/11/30 00:07:45;;;;;;;21.43;9.60;;;;;;;1.74;100.00;99350.82;3431411;84;98488;-82
2021/11/30 00:12:46;;;;;;;20.90;9.73;;;;;;;1.74;100.00;99349.47;3400017;85;98916;-82
2021/11/30 00:17:47;;;;;;;20.27;9.73;;;;;;;1.74;100.00;99353.53;3438118;84;98697;-82
2021/11/30 00:22:48;;;;;;;17.03;8.97;;;;;;;1.74;100.00;99356.80;3436041;83;98631;-81
2021/11/30 00:27:49;;;;;;;14.77;8.23;;;;;;;1.73;100.00;99364.72;3427042;84;98675;-82
2021/11/30 00:32:51;;;;;;;18.97;9.37;;;;;;;1.73;100.00;99372.30;3438174;84;98627;-82
2021/11/30 00:37:53;;;;;;;15.97;8.70;;;;;;;1.74;100.00;99375.78;3442633;84;99121;-82
2021/11/30 00:42:56;;;;;;;13.83;8.07;;;;;;;1.72;100.00;99382.13;3429676;83;98687;-82
2021/11/30 00:47:59;;;;;;;14.50;7.77;;;;;;;1.70;100.00;99387.89;3437327;84;98705;-81
2021/11/30 00:53:00;;;;;;;15.20;6.35;;;;;;;1.70;100.00;99373.55;3428414;84;98671;-82
2021/11/30 00:58:01;;;;;;;12.20;5.73;;;;;;;1.70;100.00;99376.27;3423636;84;99105;-81
2021/11/30 01:03:05;;;;;;;14.77;6.50;;;;;;;1.69;100.00;99375.47;3426285;84;98526;-82
2021/11/30 01:08:06;;;;;;;14.37;5.83;;;;;;;1.68;100.00;99385.30;3436676;84;97636;-81
2021/11/30 01:13:07;;;;;;;12.90;6.43;;;;;;;1.67;100.00;99382.36;3432508;84;98589;-81
2021/11/30 01:18:08;;;;;;;14.83;7.03;;;;;;;1.68;100.00;99392.08;3422651;84;98676;-82
2021/11/30 01:23:09;;;;;;;11.90;5.53;;;;;;;1.66;100.00;99382.95;3426838;84;99049;-82
2021/11/30 01:28:11;;;;;;;10.00;5.53;;;;;;;1.65;100.00;99386.77;3442452;84;98821;-82
2021/11/30 01:33:12;;;;;;;15.83;5.27;;;;;;;1.64;100.00;99385.78;3429155;84;98705;-82
2021/11/30 01:38:14;;;;;;;10.77;4.87;;;;;;;1.66;100.00;99394.35;3438068;84;33328;-82
2021/11/30 01:43:20;;;;;;;9.33;4.50;;;;;;;1.63;100.00;99390.41;3425510;84;98899;-82
2021/11/30 01:53:25;;;;;;;9.37;4.67;;;;;;;1.50;100.00;99391.58;3425479;84;98724;-82
2021/11/30 01:58:26;;;;;;;9.87;5.27;;;;;;;1.44;100.00;99402.98;3433451;84;98511;-81
2021/11/30 02:03:27;;;;;;;11.03;4.30;;;;;;;1.36;100.00;99402.53;3423430;84;98856;-81
2021/11/30 02:08:28;;;;;;;8.57;3.90;;;;;;;1.33;100.00;99404.58;3450324;84;42481;-81
2021/11/30 02:13:29;;;;;;;9.33;3.97;;;;;;;1.29;100.00;99404.47;3424308;84;98808;-81
2021/11/30 02:18:30;;;;;;;13.27;4.70;;;;;;;1.20;100.00;99390.83;3431667;84;98340;-81
2021/11/30 02:23:45;;;;;;;10.23;4.10;;;;;;;1.12;100.00;99394.43;3444064;84;99241;-81
2021/11/30 02:28:47;;;;;;;10.17;4.20;;;;;;;1.03;100.00;99384.27;3434506;84;98722;-81
2021/11/30 02:33:49;;;;;;;11.50;5.00;;;;;;;0.95;100.00;99383.83;3435698;84;100731;-81
2021/11/30 02:38:52;;;;;;;14.03;6.03;;;;;;;0.85;100.00;99385.08;3442977;84;33221;-82
2021/11/30 02:43:54;;;;;;;12.57;5.33;;;;;;;0.78;100.00;99390.23;3378051;85;98746;-81
2021/11/30 02:48:55;;;;;;;10.47;4.50;;;;;;;0.72;100.00;99384.05;3375642;86;98638;-81
2021/11/30 02:53:59;;;;;;;10.23;4.37;;;;;;;0.63;100.00;99379.29;3355656;85;98854;-81
2021/11/30 02:58:58;;;;;;;9.53;3.97;;;;;;;0.55;100.00;99377.48;3348646;86;98738;-81
2021/11/30 03:03:59;;;;;;;11.07;3.67;;;;;;;0.45;100.00;99377.33;3317635;86;98697;-82
2021/11/30 03:09:00;;;;;;;8.57;3.87;;;;;;;0.36;100.00;99371.80;3324623;87;33788;-81
2021/11/30 03:14:02;;;;;;;8.33;3.63;;;;;;;0.27;100.00;99372.44;3331582;86;98563;-81
2021/11/30 03:19:04;;;;;;;12.23;5.00;;;;;;;0.19;100.00;99355.20;3325552;86;98419;-81
2021/11/30 03:24:05;;;;;;;9.40;4.23;;;;;;;0.13;100.00;99350.33;3345031;85;98812;-81
2021/11/30 03:29:06;;;;;;;9.93;5.17;;;;;;;0.09;100.00;99348.05;3340234;85;98558;-81
2021/11/30 03:34:14;;;;;;;10.33;5.30;;;;;;;0.04;100.00;99346.36;3370129;84;98559;-80
2021/11/30 03:39:19;;;;;;;10.17;5.50;;;;;;;0.06;100.00;99341.98;3363251;85;98633;-81
2021/11/30 03:44:22;;;;;;;12.03;4.90;;;;;;;0.01;100.00;99331.37;3315596;86;98747;-81
2021/11/30 03:49:23;;;;;;;14.90;6.40;;;;;;;0.02;100.00;99322.90;3356417;85;98575;-80
2021/11/30 03:54:24;;;;;;;13.53;6.23;;;;;;;0.02;100.00;99322.90;3341266;85;98758;-81
2021/11/30 03:59:25;;;;;;;12.83;6.50;;;;;;;0.05;100.00;99314.13;3354345;85;99167;-81
2021/11/30 04:04:30;;;;;;;14.03;6.70;;;;;;;0.01;100.00;99293.51;3359836;85;98830;-81
2021/11/30 04:09:29;;;;;;;13.60;6.37;;;;;;;0.07;100.00;99296.99;3350990;85;98636;-80
2021/11/30 04:14:31;;;;;;;13.27;6.80;;;;;;;0.07;100.00;99298.34;3320692;87;109127;-81
2021/11/30 04:19:33;;;;;;;14.47;7.30;;;;;;;0.11;100.00;99287.09;3305764;87;98772;-81
2021/11/30 04:24:34;;;;;;;17.07;7.03;;;;;;;0.14;100.00;99286.44;3331933;85;99076;-81
2021/11/30 04:29:39;;;;;;;13.27;7.20;;;;;;;0.19;100.00;99284.06;3312417;87;98806;-81
2021/11/30 04:34:40;;;;;;;16.03;7.00;;;;;;;0.22;100.00;99267.95;3340111;86;98877;-81
2021/11/30 04:39:41;;;;;;;13.03;6.50;;;;;;;0.25;100.00;99263.23;3340007;86;98665;-80
2021/11/30 04:44:52;;;;;;;14.23;7.10;;;;;;;0.30;100.00;99255.44;3376463;85;98486;-81
2021/11/30 04:50:04;;;;;;;14.03;6.90;;;;;;;0.36;100.00;99248.67;3284575;86;98602;-81
2021/11/30 04:55:00;;;;;;;13.40;6.33;;;;;;;0.41;100.00;99243.05;3441009;82;98569;-79
2021/11/30 05:00:04;;;;;;;16.15;8.30;;;;;;;0.45;100.00;99244.72;3435130;84;98679;-81
2021/11/30 05:05:06;;;;;;;14.40;7.20;;;;;;;0.51;100.00;99225.77;3429767;84;98639;-81
2021/11/30 05:10:07;;;;;;;15.27;7.67;;;;;;;0.57;100.00;99219.58;3430763;84;97871;-81
2021/11/30 05:15:10;;;;;;;16.77;7.80;;;;;;;0.62;100.00;99212.58;3433147;84;98794;-81
2021/11/30 05:20:12;;;;;;;15.90;7.53;;;;;;;0.68;100.00;99204.45;3355264;86;98447;-80
2021/11/30 05:25:13;;;;;;;18.13;8.53;;;;;;;0.71;100.00;99190.24;3380247;85;98618;-81
2021/11/30 05:30:17;;;;;;;19.07;8.83;;;;;;;0.74;100.00;99183.58;3440111;84;99216;-81
2021/11/30 05:35:18;;;;;;;20.68;9.93;;;;;;;0.79;100.00;99181.19;3435829;84;98607;-81
2021/11/30 05:40:20;;;;;;;18.87;10.13;;;;;;;0.83;100.00;99170.67;3433292;84;98796;-81
2021/11/30 05:45:21;;;;;;;22.17;11.38;;;;;;;0.87;100.00;99159.94;3413678;84;98893;-81
2021/11/30 05:50:22;;;;;;;21.83;11.13;;;;;;;0.90;100.00;99146.52;3427063;84;45295;-81
2021/11/30 05:55:23;;;;;;;22.70;11.07;;;;;;;0.93;100.00;99136.34;3425452;84;99061;-81
2021/11/30 06:00:27;;;;;;;24.60;12.53;;;;;;;0.95;100.00;99135.45;3434319;84;98898;-81
2021/11/30 06:05:30;;;;;;;26.15;13.10;;;;;;;0.99;100.00;99124.13;3431400;84;98837;-81
2021/11/30 06:10:31;;;;;;;27.83;13.47;;;;;;;1.03;100.00;99113.38;3436202;84;98871;-81
2021/11/30 06:15:33;;;;;;;22.50;13.33;;;;;;;1.05;100.00;99103.00;3432639;84;98941;-82
2021/11/30 06:20:35;;;;;;;25.47;12.80;;;;;;;1.06;100.00;99099.95;3437248;84;33522;-81
2021/11/30 06:25:36;;;;;;;25.00;13.70;;;;;;;1.10;100.00;99089.20;3432779;84;98961;-82
2021/11/30 06:30:37;;;;;;;26.10;12.87;;;;;;;1.14;100.00;99100.35;3431497;84;98683;-81
2021/11/30 06:35:38;;;;;;;21.33;11.57;;;;;;;1.16;100.00;99091.30;3360778;85;99017;-83
2021/11/30 06:40:39;;;;;;;23.43;12.43;;;;;;;1.20;100.00;99078.64;3341813;86;98142;-82
2021/11/30 06:45:42;;;;;;;24.20;11.90;;;;;;;1.22;100.00;99064.75;3341947;86;99206;-83
2021/11/30 06:50:44;;;;;;;25.87;12.23;;;;;;;1.24;100.00;99057.05;3343481;86;33703;-83
2021/11/30 06:55:45;;;;;;;23.50;12.73;;;;;;;1.25;100.00;99041.01;3345879;86;98796;-81
2021/11/30 07:00:49;;;;;;;26.63;13.43;;;;;;;1.28;100.00;99025.42;3317989;86;97974;-82
2021/11/30 07:05:59;;;;;;;26.03;13.23;;;;;;;1.28;100.00;99016.73;3341042;86;98963;-81
2021/11/30 07:11:03;;;;;;;25.52;13.48;;;;;;;1.30;100.00;99001.45;3350447;86;98928;-84
2021/11/30 07:16:02;;;;;;;26.52;13.60;;;;;;;1.31;100.00;98996.28;3339245;86;99270;-85
2021/11/30 07:21:04;;;;;;;32.93;15.93;;;;;;;1.35;100.00;98989.00;3350784;86;33248;-83
2021/11/30 07:26:05;;;;;;;28.27;14.75;;;;;;;1.35;100.00;98976.80;3345216;86;98801;-82
2021/11/30 07:31:10;;;;;;;28.30;14.93;;;;;;;1.35;100.00;98964.61;3349497;86;98706;-82
2021/11/30 07:36:14;;;;;;;31.03;16.00;;;;;;;1.35;100.00;98946.44;3343172;86;98886;-82
2021/11/30 07:41:17;;;;;;;35.77;18.37;;;;;;;1.36;100.00;98935.80;3339864;86;98878;-83
2021/11/30 07:46:18;;;;;;;33.37;16.93;;;;;;;1.39;100.00;98914.79;3343954;86;99290;-83
2021/11/30 07:51:19;;;;;;;35.97;17.03;;;;;;;1.41;100.00;98895.44;3358482;86;98860;-84
2021/11/30 07:56:20;;;;;;;29.17;14.40;;;;;;;1.43;100.00;98882.34;3346384;85;98704;-84
2021/11/30 08:01:21;;;;;;;32.20;17.67;;;;;;;1.45;100.00;98880.84;3346755;86;98698;-85
2021/11/30 08:06:26;;;;;;;28.70;15.53;;;;;;;1.46;100.00;98862.09;3338742;86;98861;-85
2021/11/30 08:11:36;;;;;;;29.10;16.20;;;;;;;1.46;100.00;98848.53;3376845;84;98479;-86
2021/11/30 08:16:38;;;;;;;31.30;15.60;;;;;;;1.45;100.00;98832.06;3345026;84;99325;-90
2021/11/30 08:21:57;;;;;;;;;;;;;;;;;;;;;
2021/11/30 08:26:50;;;;;;;31.07;15.93;;;;;;;1.41;100.00;98813.58;3306112;87;135302;-92
2021/11/30 08:31:52;;;;;;;31.63;16.53;;;;;;;1.38;100.00;98787.17;3267961;88;99293;-93
2021/11/30 08:36:53;;;;;;;33.33;18.00;;;;;;;1.39;100.00;98775.22;3277182;87;1952802;-89
2021/11/30 08:41:54;;;;;;;32.73;17.13;;;;;;;1.41;100.00;98759.93;3255322;87;99408;-90
2021/11/30 08:46:58;;;;;;;30.90;16.63;;;;;;;1.43;100.00;98741.41;3304885;87;98830;-86
2021/11/30 08:52:03;;;;;;;29.87;16.67;;;;;;;1.43;100.00;98722.44;3271955;88;98978;-87
2021/11/30 08:57:08;;;;;;;28.63;16.43;;;;;;;1.41;100.00;98705.17;3338777;86;47339;-91
2021/11/30 09:02:09;;;;;;;28.23;15.43;;;;;;;1.43;100.00;98689.91;3314203;84;228033;-96
2021/11/30 09:07:11;;;;;;;33.28;17.48;;;;;;;1.43;100.00;98677.13;3316604;83;2096181;-91
2021/11/30 09:12:11;;;;;;;27.13;15.67;;;;;;;1.46;100.00;98666.94;3307846;85;99310;-91
2021/11/30 09:17:13;;;;;;;26.57;14.97;;;;;;;1.48;100.00;98674.13;3326551;86;99266;-92
2021/11/30 09:22:14;;;;;;;27.73;14.93;;;;;;;1.49;100.00;98668.15;3330830;86;98994;-92
2021/11/30 09:27:16;;;;;;;23.27;14.80;;;;;;;1.46;100.00;98619.51;3362564;84;108382;-92
2021/11/30 09:32:17;;;;;;;27.40;14.00;;;;;;;1.46;100.00;98619.51;3365909;85;98723;-90
2021/11/30 09:37:18;;;;;;;28.53;15.03;;;;;;;1.46;100.00;98599.18;3343745;86;98672;-88
2021/11/30 09:42:19;;;;;;;23.87;13.20;;;;;;;1.46;100.00;98576.70;3342144;86;98759;-89
2021/11/30 09:47:21;;;;;;;25.17;13.80;;;;;;;1.44;100.00;98555.41;3350674;86;98923;-92
2021/11/30 09:52:22;;;;;;;20.17;12.40;;;;;;;1.37;100.00;98530.87;3302092;85;99057;-92
2021/11/30 09:57:23;;;;;;;22.33;13.40;;;;;;;1.31;100.00;98501.17;3309332;86;98913;-93
2021/11/30 10:02:43;;;;;;;20.57;11.95;;;;;;;1.26;100.00;98486.56;3363677;85;98468;-92
2021/11/30 10:07:56;;;;;;;22.67;12.65;;;;;;;1.18;100.00;98455.66;3291426;86;5675746;-92
2021/11/30 10:13:33;;;;;;;;;;;;;;;;;;;;;
2021/11/30 10:18:39;;;;;;;30.50;14.77;;;;;;;1.09;100.00;98422.64;3432204;84;99016;-93
2021/11/30 10:24:03;;;;;;;26.40;14.93;;;;;;;1.04;100.00;98396.62;3433357;84;98844;-91
2021/11/30 10:29:19;;;;;;;28.87;15.27;;;;;;;1.06;100.00;98383.53;3442150;84;98817;-89
2021/11/30 10:34:23;;;;;;;23.57;13.13;;;;;;;1.05;100.00;98368.39;3410633;84;98874;-90
2021/11/30 10:39:29;;;;;;;21.25;12.03;;;;;;;1.01;100.00;98345.13;3415735;84;98054;-90
2021/11/30 10:44:32;;;;;;;18.80;10.87;;;;;;;0.91;100.00;98282.11;3398826;84;99139;-92
2021/11/30 10:49:35;;;;;;;17.87;10.30;;;;;;;0.85;100.00;98272.74;3439667;84;99103;-87
2021/11/30 10:54:38;;;;;;;20.10;10.23;;;;;;;0.94;100.00;98284.10;3343623;86;98944;-90
2021/11/30 10:59:44;;;;;;;18.30;10.32;;;;;;;0.93;100.00;98253.52;3350389;85;99130;-87
2021/11/30 11:04:45;;;;;;;19.50;10.82;;;;;;;0.95;100.00;98254.52;3320048;86;2079847;-88
2021/11/30 11:10:03;;;;;;;21.23;12.47;;;;;;;0.88;100.00;98225.41;3355937;85;99304;-90
2021/11/30 11:14:51;;;;;;;19.57;9.57;;;;;;;0.96;100.00;98216.25;3368076;85;98366;-88
2021/11/30 11:19:52;;;;;;;15.10;8.67;;;;;;;0.96;100.00;98205.42;3345207;85;98504;-89
2021/11/30 11:25:01;;;;;;;18.40;9.23;;;;;;;0.97;100.00;98193.44;3344535;87;98804;-89
2021/11/30 11:30:04;;;;;;;18.03;9.63;;;;;;;0.97;100.00;98185.88;3365281;85;98643;-89
2021/11/30 11:35:06;;;;;;;14.87;9.38;;;;;;;0.99;100.00;98182.25;3354829;86;98384;-89
2021/11/30 11:40:09;;;;;;;15.17;9.40;;;;;;;1.02;100.00;98163.89;3355226;86;98713;-90
2021/11/30 11:45:10;;;;;;;16.45;9.18;;;;;;;1.03;100.00;98157.31;3418448;84;98693;-86
2021/11/30 11:50:14;;;;;;;17.37;9.10;;;;;;;1.04;100.00;98143.42;3434949;84;98517;-90
2021/11/30 11:55:21;;;;;;;14.40;7.90;;;;;;;1.07;100.00;98150.02;3429308;84;98145;-88
2021/11/30 12:00:27;;;;;;;14.00;7.73;;;;;;;1.09;100.00;98134.20;3441561;84;98662;-90
2021/11/30 12:05:52;;;;;;;14.93;7.83;;;;;;;1.10;100.00;98113.50;3411639;84;98734;-88
2021/11/30 12:10:53;;;;;;;14.33;7.30;;;;;;;1.12;100.00;98117.98;3441237;84;98681;-87
2021/11/30 12:16:07;;;;;;;11.68;6.17;;;;;;;1.17;100.00;98101.41;3439143;84;98727;-88
2021/11/30 12:21:21;;;;;;;11.70;5.63;;;;;;;1.20;100.00;98085.75;3443495;84;33250;-87
2021/11/30 12:26:44;;;;;;;10.53;5.67;;;;;;;1.24;100.00;98089.28;3433260;84;98424;-86
2021/11/30 12:31:48;;;;;;;10.15;4.78;;;;;;;1.29;100.00;98078.11;3434533;84;98713;-86
2021/11/30 12:36:53;;;;;;;11.43;6.33;;;;;;;1.32;100.00;98082.77;3434409;84;98502;-86
2021/11/30 12:41:59;;;;;;;11.90;6.20;;;;;;;1.36;100.00;98061.12;3417898;84;98635;-87
2021/11/30 12:47:00;;;;;;;;;;;;;;;1.39;100.00;98059.83;3439122;84;98665;-87
2021/11/30 12:52:21;;;;;;;7.93;4.57;;;;;;;1.45;100.00;98048.05;3436823;84;84758;-87
2021/11/30 12:57:37;;;;;;;10.47;5.60;;;;;;;1.49;100.00;98042.86;3439119;84;57376;-87
2021/11/30 13:02:41;;;;;;;8.20;4.65;;;;;;;1.56;100.00;98044.86;3424386;84;98807;-87
2021/11/30 13:07:55;;;;;;;8.35;3.95;;;;;;;1.62;100.00;98048.77;3439861;84;98430;-85
2021/11/30 13:13:00;;;;;;;8.83;4.03;;;;;;;1.67;100.00;98041.09;3440167;84;98543;-83
2021/11/30 13:18:07;;;;;;;7.60;4.03;;;;;;;1.75;100.00;98018.28;3432500;84;98971;-86
2021/11/30 13:23:06;;;;;;;6.97;3.67;;;;;;;1.81;100.00;98011.94;3428303;84;98621;-86
2021/11/30 13:28:16;;;;;;;8.50;4.63;;;;;;;1.86;100.00;97996.08;3439580;84;98470;-85
2021/11/30 13:33:27;;;;;;;8.63;4.43;;;;;;;1.91;100.00;97995.73;3432388;84;98550;-89
2021/11/30 13:38:33;;;;;;;7.23;3.80;;;;;;;1.96;100.00;97997.29;3432018;84;98283;-88
2021/11/30 13:43:45;;;;;;;9.20;4.40;;;;;;;2.03;100.00;97996.00;3441500;84;98280;-90
2021/11/30 13:48:57;;;;;;;11.67;4.17;;;;;;;2.03;100.00;97996.00;3439438;84;98499;-87
2021/11/30 13:54:05;;;;;;;8.40;3.77;;;;;;;2.07;100.00;98011.13;3434133;84;98487;-88
2021/11/30 14:04:14;;;;;;;10.10;5.70;;;;;;;2.17;100.00;98010.41;3420927;84;98519;-87
2021/11/30 14:09:21;;;;;;;7.60;3.80;;;;;;;2.23;100.00;98006.74;3422759;84;120272;-88
2021/11/30 14:14:25;;;;;;;7.23;3.33;;;;;;;2.27;100.00;97994.77;3425233;84;98517;-91
2021/11/30 14:19:40;;;;;;;7.30;3.37;;;;;;;2.33;100.00;97990.53;3434328;84;97557;-88
2021/11/30 14:25:00;;;;;;;9.65;3.10;;;;;;;2.40;100.00;97979.69;3435765;82;98538;-86
2021/11/30 14:30:01;;;;;;;12.90;5.33;;;;;;;2.47;100.00;97973.52;3432872;84;98931;-91
2021/11/30 14:35:06;;;;;;;10.40;3.63;;;;;;;2.53;100.00;97965.98;3443920;84;98641;-88
2021/11/30 14:40:24;;;;;;;11.53;3.83;;;;;;;2.60;100.00;97964.64;3444924;83;98609;-90
2021/11/30 14:45:50;;;;;;;8.85;4.20;;;;;;;2.67;100.00;97966.61;3440908;84;98658;-88
2021/11/30 14:51:07;;;;;;;10.15;2.98;;;;;;;2.72;100.00;97968.35;3435123;84;98273;-86
2021/11/30 14:56:19;;;;;;;12.55;3.30;;;;;;;2.81;100.00;97968.77;3415508;84;98592;-86
2021/11/30 15:01:22;;;;;;;12.73;3.03;;;;;;;2.89;100.00;97968.20;3434322;84;98565;-86
2021/11/30 15:06:31;;;;;;;14.03;2.90;;;;;;;2.98;100.00;97962.59;3413436;84;98748;-87
2021/11/30 15:11:37;;;;;;;9.87;3.40;;;;;;;3.05;100.00;97957.16;3417717;84;98784;-89
2021/11/30 15:16:48;;;;;;;8.35;2.37;;;;;;;3.15;100.00;97961.04;3440722;84;98496;-86
2021/11/30 15:22:08;;;;;;;11.00;2.90;;;;;;;3.21;100.00;97957.55;3412771;84;98344;-87
2021/11/30 15:27:22;;;;;;;11.03;2.70;;;;;;;3.25;100.00;97966.49;3426439;84;98452;-88
2021/11/30 15:32:27;;;;;;;10.13;3.03;;;;;;;3.30;100.00;97968.04;3423446;83;98695;-87
2021/11/30 15:37:28;;;;;;;15.47;4.10;;;;;;;3.36;100.00;97976.78;3397493;85;98653;-87
2021/11/30 15:42:29;;;;;;;12.60;3.10;;;;;;;3.39;100.00;97980.06;3426161;84;98811;-87
2021/11/30 15:47:30;;;;;;;11.03;3.00;;;;;;;3.43;100.00;97981.42;3430476;83;98619;-87
2021/11/30 15:52:32;;;;;;;13.13;3.40;;;;;;;3.44;100.00;97979.69;3424363;84;98688;-83
2021/11/30 15:57:36;;;;;;;13.03;3.00;;;;;;;3.44;100.00;97972.89;3442771;84;36250;-85
2021/11/30 16:02:37;;;;;;;13.03;3.90;;;;;;;3.44;100.00;97974.84;3432186;83;98872;-85
2021/11/30 16:07:38;;;;;;;19.57;5.70;;;;;;;3.43;100.00;97967.83;3432742;83;98595;-85
2021/11/30 16:12:39;;;;;;;14.10;3.70;;;;;;;3.44;100.00;97967.45;3426211;84;98739;-87
2021/11/30 16:17:40;;;;;;;21.43;5.37;;;;;;;3.46;100.00;97969.22;3429164;84;98712;-89
2021/11/30 16:22:41;;;;;;;14.07;3.67;;;;;;;3.48;100.00;97981.03;3430270;84;98740;-89
2021/11/30 16:27:44;;;;;;;14.60;3.80;;;;;;;3.47;100.00;97974.05;3436097;84;33196;-88
2021/11/30 16:32:45;;;;;;;14.70;4.17;;;;;;;3.43;100.00;97975.41;3409704;85;99007;-86
2021/11/30 16:37:46;;;;;;;13.10;3.03;;;;;;;3.41;100.00;97991.35;3426672;84;98617;-87
2021/11/30 16:42:47;;;;;;;10.30;2.10;;;;;;;3.40;100.00;98008.83;3412894;84;99462;-88
2021/11/30 16:47:47;;;;;;;16.70;6.27;;;;;;;3.38;100.00;98003.59;3425304;83;98719;-89
2021/11/30 16:52:50;;;;;;;14.17;4.40;;;;;;;3.37;100.00;98012.88;3432156;84;98963;-87
2021/11/30 16:57:51;;;;;;;24.90;4.87;;;;;;;3.36;100.00;98009.41;3434616;84;33438;-91
2021/11/30 17:02:52;;;;;;;10.47;2.97;;;;;;;3.42;100.00;98017.94;3432183;84;98495;-90
2021/11/30 17:07:53;;;;;;;8.77;2.53;;;;;;;3.45;100.00;98033.48;3412952;84;98519;-88
2021/11/30 17:12:56;;;;;;;4.13;1.43;;;;;;;3.34;100.00;98034.81;3441362;84;98646;-89
2021/11/30 17:17:58;;;;;;;3.05;1.27;;;;;;;3.17;100.00;98024.70;3425234;84;98539;-89
2021/11/30 17:22:59;;;;;;;6.23;1.53;;;;;;;3.06;100.00;98030.70;3441321;84;98541;-89
2021/11/30 17:28:00;;;;;;;12.73;4.00;;;;;;;3.01;100.00;98031.08;3434028;83;33234;-87
2021/11/30 17:33:03;;;;;;;9.33;2.47;;;;;;;2.97;100.00;98029.52;3401749;85;99133;-87
2021/11/30 17:38:04;;;;;;;12.20;3.83;;;;;;;2.99;100.00;98043.48;3443559;84;98327;-87
2021/11/30 17:43:05;;;;;;;19.23;7.23;;;;;;;2.97;100.00;98039.82;3434136;84;98857;-87
2021/11/30 17:48:06;;;;;;;15.57;5.43;;;;;;;2.96;100.00;98045.62;3437769;84;98742;-87
2021/11/30 17:53:08;;;;;;;21.50;5.80;;;;;;;2.99;100.00;98054.35;3427274;84;98746;-88
2021/11/30 17:58:09;;;;;;;19.23;5.30;;;;;;;3.05;100.00;98056.32;3437044;84;33223;-88
2021/11/30 18:03:10;;;;;;;24.80;5.47;;;;;;;3.11;100.00;98049.34;3416112;84;100047;-87
2021/11/30 18:08:11;;;;;;;17.23;4.40;;;;;;;3.19;100.00;98071.88;3428968;84;98789;-88
2021/11/30 18:13:12;;;;;;;13.90;3.67;;;;;;;3.24;100.00;98075.02;3362040;85;98650;-88
2021/11/30 18:18:13;;;;;;;24.93;5.40;;;;;;;3.28;100.00;98081.21;3350185;85;98763;-91
2021/11/30 18:23:14;;;;;;;21.00;6.47;;;;;;;3.33;100.00;98093.06;3333234;86;98803;-88
2021/11/30 18:28:15;;;;;;;17.00;4.90;;;;;;;3.36;100.00;98090.16;3307615;87;33776;-88
2021/11/30 18:33:18;;;;;;;12.63;4.00;;;;;;;3.38;100.00;98106.28;3302547;86;98955;-90
2021/11/30 18:38:18;;;;;;;15.83;3.73;;;;;;;3.40;100.00;98116.20;3320950;87;98639;-90
2021/11/30 18:43:20;;;;;;;18.20;4.47;;;;;;;3.40;100.00;98128.44;3292684;88;98755;-88
2021/11/30 18:48:22;;;;;;;11.50;4.57;;;;;;;3.39;100.00;98137.73;3323043;86;98764;-89
2021/11/30 18:53:25;;;;;;;11.07;3.07;;;;;;;3.40;100.00;98148.04;3315536;86;98646;-90
2021/11/30 18:58:26;;;;;;;11.90;4.53;;;;;;;3.40;100.00;98156.98;3317367;86;98646;-88
2021/11/30 19:03:27;;;;;;;11.17;5.03;;;;;;;3.41;100.00;98153.66;3355607;85;98376;-88
2021/11/30 19:08:29;;;;;;;16.83;4.60;;;;;;;3.42;100.00;98166.88;3319608;86;98533;-90
2021/11/30 19:13:33;;;;;;;11.93;3.83;;;;;;;3.40;100.00;98180.09;3300137;87;99035;-89
2021/11/30 19:18:35;;;;;;;14.80;5.20;;;;;;;3.41;100.00;98187.65;3289582;87;98846;-90
2021/11/30 19:23:36;;;;;;;12.57;2.97;;;;;;;3.42;100.00;98196.78;3309166;87;98659;-90
2021/11/30 19:28:37;;;;;;;11.20;3.50;;;;;;;3.42;100.00;98215.02;3445892;84;98621;-92
2021/11/30 19:33:39;;;;;;;8.20;2.30;;;;;;;3.41;100.00;98228.42;3427796;84;98922;-92
2021/11/30 19:38:41;;;;;;;5.57;1.60;;;;;;;3.31;100.00;98240.82;3452284;84;98337;-89
2021/11/30 19:43:44;;;;;;;6.47;1.90;;;;;;;3.39;100.00;98269.58;3440339;84;98478;-89
2021/11/30 19:48:51;;;;;;;6.50;1.60;;;;;;;3.41;100.00;98284.95;3444688;84;98585;-87
2021/11/30 19:53:51;;;;;;;8.60;2.50;;;;;;;3.40;100.00;98299.70;3441086;84;98690;-90
2021/11/30 19:58:53;;;;;;;4.93;2.00;;;;;;;3.39;100.00;98310.95;3453472;84;98557;-90
2021/11/30 20:09:13;;;;;;;8.73;2.73;;;;;;;3.38;100.00;98331.15;3444958;84;98127;-90
2021/11/30 20:14:14;;;;;;;8.07;2.33;;;;;;;3.36;100.00;98343.75;3430990;83;98666;-91
2021/11/30 20:19:17;;;;;;;9.55;3.58;;;;;;;3.35;100.00;98353.64;3438952;84;98643;-89
2021/11/30 20:24:18;;;;;;;6.33;2.02;;;;;;;3.35;100.00;98376.75;3353070;86;98704;-90
2021/11/30 20:29:20;;;;;;;4.97;2.60;;;;;;;3.33;100.00;98383.16;3362272;86;98436;-91
2021/11/30 20:34:21;;;;;;;5.73;2.57;;;;;;;3.33;100.00;98402.94;3305214;87;98435;-91
2021/11/30 20:39:25;;;;;;;8.80;2.63;;;;;;;3.33;100.00;98413.82;3442392;84;33316;-91
2021/11/30 20:44:26;;;;;;;6.17;2.27;;;;;;;3.32;100.00;98420.98;3425315;84;98849;-89
2021/11/30 20:49:27;;;;;;;5.23;2.20;;;;;;;3.29;100.00;98423.11;3427934;84;98518;-88
2021/11/30 20:54:28;;;;;;;6.80;2.27;;;;;;;3.26;100.00;98435.52;3441858;84;99129;-90
2021/11/30 20:59:29;;;;;;;9.55;2.70;;;;;;;3.25;100.00;98450.27;3375029;85;98632;-91
2021/11/30 21:04:30;;;;;;;5.87;2.17;;;;;;;3.24;100.00;98467.74;3303241;87;98677;-90
2021/11/30 21:09:33;;;;;;;6.53;2.37;;;;;;;3.23;100.00;98470.23;3326041;86;33224;-90
2021/11/30 21:14:34;;;;;;;10.23;3.03;;;;;;;3.22;100.00;98471.98;3327259;86;98563;-90
2021/11/30 21:19:35;;;;;;;7.57;3.10;;;;;;;3.23;100.00;98493.93;3327344;86;98697;-90
2021/11/30 21:24:36;;;;;;;6.47;2.70;;;;;;;3.23;100.00;98512.95;3446063;84;98873;-89
2021/11/30 21:29:37;;;;;;;6.47;2.23;;;;;;;3.22;100.00;98532.55;3370350;85;98501;-90
2021/11/30 21:34:40;;;;;;;8.97;3.10;;;;;;;3.21;100.00;98558.73;3336994;86;98571;-91
2021/11/30 21:39:41;;;;;;;6.17;2.77;;;;;;;3.22;100.00;98568.48;3351313;86;34315;-90
2021/11/30 21:44:45;;;;;;;11.12;3.90;;;;;;;3.22;100.00;98579.34;3350494;86;98775;-91
2021/11/30 21:49:45;;;;;;;6.80;2.75;;;;;;;3.22;100.00;98601.09;3348809;86;98624;-91
2021/11/30 21:54:47;;;;;;;9.93;3.53;;;;;;;3.22;100.00;98613.32;3352234;86;98604;-89
2021/11/30 21:59:48;;;;;;;8.30;3.93;;;;;;;3.22;100.00;98638.55;3344587;86;98542;-88
2021/11/30 22:04:49;;;;;;;8.83;2.52;;;;;;;3.20;100.00;98647.66;3334407;86;98487;-88
2021/11/30 22:09:50;;;;;;;9.77;3.97;;;;;;;3.21;100.00;98666.09;3342987;86;35699;-89
2021/11/30 22:14:51;;;;;;;8.53;3.73;;;;;;;3.22;100.00;98693.50;3336048;85;98437;-90
2021/11/30 22:19:52;;;;;;;6.27;2.07;;;;;;;3.24;100.00;98707.50;3346807;86;98404;-89
2021/11/30 22:24:53;;;;;;;6.42;2.15;;;;;;;3.22;100.00;98719.33;3347724;86;98610;-90
2021/11/30 22:29:54;;;;;;;5.43;2.13;;;;;;;3.18;100.00;98745.08;3342293;86;98459;-89
2021/11/30 22:34:55;;;;;;;4.87;2.13;;;;;;;3.16;100.00;98773.21;3334960;86;98615;-90
2021/11/30 22:39:56;;;;;;;5.10;2.35;;;;;;;3.15;100.00;98800.75;3351948;86;49164;-90
2021/11/30 22:45:00;;;;;;;6.50;2.25;;;;;;;3.12;100.00;98806.94;3344409;86;98376;-91
2021/11/30 22:50:01;;;;;;;8.37;2.90;;;;;;;3.07;100.00;98829.75;3343595;86;98395;-90
2021/11/30 22:55:04;;;;;;;7.07;2.87;;;;;;;3.03;100.00;98849.88;3320571;86;98579;-89
2021/11/30 23:00:12;;;;;;;6.67;2.80;;;;;;;2.99;100.00;98869.41;3321245;86;98576;-90
2021/11/30 23:05:14;;;;;;;5.60;2.10;;;;;;;2.94;100.00;98880.59;3350766;85;98581;-89
2021/11/30 23:10:15;;;;;;;5.20;2.67;;;;;;;2.92;100.00;98895.92;3382849;84;35817;-89
2021/11/30 23:15:17;;;;;;;6.00;2.80;;;;;;;2.88;100.00;98895.06;3296642;87;98378;-90
2021/11/30 23:20:27;;;;;;;7.03;2.67;;;;;;;2.87;100.00;98922.03;3332317;86;98453;-90
2021/11/30 23:25:26;;;;;;;7.80;3.65;;;;;;;2.81;100.00;98938.98;3319497;86;98615;-89
2021/11/30 23:30:27;;;;;;;9.80;3.97;;;;;;;2.81;100.00;98938.42;3335988;86;97882;-89
2021/11/30 23:35:29;;;;;;;7.40;3.03;;;;;;;2.80;100.00;98961.86;3334860;85;98525;-90
2021/11/30 23:40:30;;;;;;;6.07;3.23;;;;;;;2.76;100.00;98972.67;3363695;85;98586;-89
2021/11/30 23:45:31;;;;;;;6.67;2.87;;;;;;;2.75;100.00;98991.48;3364676;85;98783;-91
2021/11/30 23:50:33;;;;;;;7.10;3.00;;;;;;;2.72;100.00;98997.61;3340930;86;98403;-90
2021/11/30 23:55:34;;;;;;;8.20;3.13;;;;;;;2.70;100.00;99011.34;3350660;85;98909;-90
